menu

WEBCAM & METEO

METAR LFQA (Reims-Prunay)

LFQA 160430Z AUTO VRB02KT CAVOK 06/04 Q1017

TAF LFQA (Reims-Prunay)

Current TAF unavailable:

METAR LFOK (Chalons-Vatry)

LFOK 160430Z AUTO 07006KT CAVOK 11/08 Q1016 NOSIG

TAF LFOK (Chalons-Vatry)

TAF LFOK 151700Z 1518/1618 VRB02KT CAVOK